sensor_id;sensor_type;location;lat;lon;timestamp;temperature;humidity
15900;DHT22;8048;50.644;6.184;2023-08-17T00:00:22;19.20;99.90
15900;DHT22;8048;50.644;6.184;2023-08-17T00:02:47;19.20;99.90
15900;DHT22;8048;50.644;6.184;2023-08-17T00:05:12;19.10;99.90
15900;DHT22;8048;50.644;6.184;2023-08-17T00:07:38;19.10;99.90
15900;DHT22;8048;50.644;6.184;2023-08-17T00:10:04;19.10;99.90
15900;DHT22;8048;50.644;6.184;2023-08-17T00:12:30;19.10;99.90
15900;DHT22;8048;50.644;6.184;2023-08-17T00:14:55;19.10;99.90
15900;DHT22;8048;50.644;6.184;2023-08-17T00:17:21;19.20;99.90
15900;DHT22;8048;50.644;6.184;2023-08-17T00:19:47;19.10;99.90
15900;DHT22;8048;50.644;6.184;2023-08-17T00:22:12;19.10;99.90
15900;DHT22;8048;50.644;6.184;2023-08-17T00:24:38;19.10;99.90
15900;DHT22;8048;50.644;6.184;2023-08-17T00:27:04;19.10;99.90
15900;DHT22;8048;50.644;6.184;2023-08-17T00:29:30;19.10;99.90
15900;DHT22;8048;50.644;6.184;2023-08-17T00:31:55;19.10;99.90
15900;DHT22;8048;50.644;6.184;2023-08-17T00:34:21;19.00;99.90
15900;DHT22;8048;50.644;6.184;2023-08-17T00:36:46;19.10;99.90
15900;DHT22;8048;50.644;6.184;2023-08-17T00:39:12;19.10;99.90
15900;DHT22;8048;50.644;6.184;2023-08-17T00:41:37;19.10;99.90
15900;DHT22;8048;50.644;6.184;2023-08-17T00:44:03;19.10;99.90
15900;DHT22;8048;50.644;6.184;2023-08-17T00:46:29;19.10;99.90
15900;DHT22;8048;50.644;6.184;2023-08-17T00:48:56;19.00;99.90
15900;DHT22;8048;50.644;6.184;2023-08-17T00:51:23;19.00;99.90
15900;DHT22;8048;50.644;6.184;2023-08-17T00:53:51;19.10;99.90
15900;DHT22;8048;50.644;6.184;2023-08-17T00:56:17;19.00;99.90
15900;DHT22;8048;50.644;6.184;2023-08-17T00:58:43;19.00;99.90
15900;DHT22;8048;50.644;6.184;2023-08-17T01:01:09;19.10;99.90
15900;DHT22;8048;50.644;6.184;2023-08-17T01:03:34;19.00;99.90
15900;DHT22;8048;50.644;6.184;2023-08-17T01:06:00;19.00;99.90
15900;DHT22;8048;50.644;6.184;2023-08-17T01:08:29;19.00;99.90
15900;DHT22;8048;50.644;6.184;2023-08-17T01:16:14;18.90;99.90
15900;DHT22;8048;50.644;6.184;2023-08-17T01:18:42;18.90;99.90
15900;DHT22;8048;50.644;6.184;2023-08-17T01:21:10;18.90;99.90
15900;DHT22;8048;50.644;6.184;2023-08-17T01:23:39;18.80;99.90
15900;DHT22;8048;50.644;6.184;2023-08-17T01:26:04;18.80;99.90
15900;DHT22;8048;50.644;6.184;2023-08-17T01:28:30;18.80;99.90
15900;DHT22;8048;50.644;6.184;2023-08-17T01:31:00;18.80;99.90
15900;DHT22;8048;50.644;6.184;2023-08-17T01:33:49;18.70;99.90
15900;DHT22;8048;50.644;6.184;2023-08-17T01:36:22;18.60;99.90
15900;DHT22;8048;50.644;6.184;2023-08-17T01:38:51;18.70;99.90
15900;DHT22;8048;50.644;6.184;2023-08-17T01:41:18;18.60;99.90
15900;DHT22;8048;50.644;6.184;2023-08-17T01:43:46;18.60;99.90
15900;DHT22;8048;50.644;6.184;2023-08-17T01:46:14;18.60;99.90
15900;DHT22;8048;50.644;6.184;2023-08-17T01:48:41;18.60;99.90
15900;DHT22;8048;50.644;6.184;2023-08-17T01:51:07;18.60;99.90
15900;DHT22;8048;50.644;6.184;2023-08-17T01:53:32;18.60;99.90
15900;DHT22;8048;50.644;6.184;2023-08-17T01:55:58;18.60;99.90
15900;DHT22;8048;50.644;6.184;2023-08-17T01:58:24;18.60;99.90
15900;DHT22;8048;50.644;6.184;2023-08-17T02:00:49;18.60;99.90
15900;DHT22;8048;50.644;6.184;2023-08-17T02:03:15;18.60;99.90
15900;DHT22;8048;50.644;6.184;2023-08-17T02:05:44;18.60;99.90
15900;DHT22;8048;50.644;6.184;2023-08-17T02:08:10;18.60;99.90
15900;DHT22;8048;50.644;6.184;2023-08-17T02:10:36;18.60;99.90
15900;DHT22;8048;50.644;6.184;2023-08-17T02:13:02;18.60;99.90
15900;DHT22;8048;50.644;6.184;2023-08-17T02:15:27;18.60;99.90
15900;DHT22;8048;50.644;6.184;2023-08-17T02:17:53;18.60;99.90
15900;DHT22;8048;50.644;6.184;2023-08-17T02:20:19;18.60;99.90
15900;DHT22;8048;50.644;6.184;2023-08-17T02:22:44;18.60;99.90
15900;DHT22;8048;50.644;6.184;2023-08-17T02:25:10;18.50;99.90
15900;DHT22;8048;50.644;6.184;2023-08-17T02:27:35;18.50;99.90
15900;DHT22;8048;50.644;6.184;2023-08-17T02:30:02;18.50;99.90
15900;DHT22;8048;50.644;6.184;2023-08-17T02:32:27;18.50;99.90
15900;DHT22;8048;50.644;6.184;2023-08-17T02:34:53;18.50;99.90
15900;DHT22;8048;50.644;6.184;2023-08-17T02:37:18;18.50;99.90
15900;DHT22;8048;50.644;6.184;2023-08-17T02:39:44;18.50;99.90
15900;DHT22;8048;50.644;6.184;2023-08-17T02:42:09;18.50;99.90
15900;DHT22;8048;50.644;6.184;2023-08-17T02:44:35;18.50;99.90
15900;DHT22;8048;50.644;6.184;2023-08-17T02:47:00;18.50;99.90
15900;DHT22;8048;50.644;6.184;2023-08-17T02:49:26;18.50;99.90
15900;DHT22;8048;50.644;6.184;2023-08-17T02:51:51;18.50;99.90
15900;DHT22;8048;50.644;6.184;2023-08-17T02:54:17;18.40;99.90
15900;DHT22;8048;50.644;6.184;2023-08-17T02:56:42;18.40;99.90
15900;DHT22;8048;50.644;6.184;2023-08-17T02:59:08;18.40;99.90
15900;DHT22;8048;50.644;6.184;2023-08-17T03:01:33;18.40;99.90
15900;DHT22;8048;50.644;6.184;2023-08-17T03:03:59;18.40;99.90
15900;DHT22;8048;50.644;6.184;2023-08-17T03:06:24;18.40;99.90
15900;DHT22;8048;50.644;6.184;2023-08-17T03:08:50;18.40;99.90
15900;DHT22;8048;50.644;6.184;2023-08-17T03:11:17;18.40;99.90
15900;DHT22;8048;50.644;6.184;2023-08-17T03:13:43;18.40;99.90
15900;DHT22;8048;50.644;6.184;2023-08-17T03:16:11;18.40;99.90
15900;DHT22;8048;50.644;6.184;2023-08-17T03:18:36;18.30;99.90
15900;DHT22;8048;50.644;6.184;2023-08-17T03:21:02;18.30;99.90
15900;DHT22;8048;50.644;6.184;2023-08-17T03:23:27;18.30;99.90
15900;DHT22;8048;50.644;6.184;2023-08-17T03:25:53;18.30;99.90
15900;DHT22;8048;50.644;6.184;2023-08-17T03:28:19;18.30;99.90
15900;DHT22;8048;50.644;6.184;2023-08-17T03:30:44;18.30;99.90
15900;DHT22;8048;50.644;6.184;2023-08-17T03:33:10;18.30;99.90
15900;DHT22;8048;50.644;6.184;2023-08-17T03:35:35;18.30;99.90
15900;DHT22;8048;50.644;6.184;2023-08-17T03:38:01;18.20;99.90
15900;DHT22;8048;50.644;6.184;2023-08-17T03:40:27;18.30;99.90
15900;DHT22;8048;50.644;6.184;2023-08-17T03:42:52;18.30;99.90
15900;DHT22;8048;50.644;6.184;2023-08-17T03:45:18;18.20;99.90
15900;DHT22;8048;50.644;6.184;2023-08-17T03:47:43;18.20;99.90
15900;DHT22;8048;50.644;6.184;2023-08-17T03:50:09;18.20;99.90
15900;DHT22;8048;50.644;6.184;2023-08-17T03:52:35;18.20;99.90
15900;DHT22;8048;50.644;6.184;2023-08-17T03:55:01;18.20;99.90
15900;DHT22;8048;50.644;6.184;2023-08-17T03:57:27;18.20;99.90
15900;DHT22;8048;50.644;6.184;2023-08-17T03:59:52;18.20;99.90
15900;DHT22;8048;50.644;6.184;2023-08-17T04:02:18;18.20;99.90
15900;DHT22;8048;50.644;6.184;2023-08-17T04:04:43;18.20;99.90
15900;DHT22;8048;50.644;6.184;2023-08-17T04:07:09;18.20;99.90
15900;DHT22;8048;50.644;6.184;2023-08-17T04:09:34;18.20;99.90
15900;DHT22;8048;50.644;6.184;2023-08-17T04:12:00;18.20;99.90
15900;DHT22;8048;50.644;6.184;2023-08-17T04:14:26;18.20;99.90
15900;DHT22;8048;50.644;6.184;2023-08-17T04:16:52;18.10;99.90
15900;DHT22;8048;50.644;6.184;2023-08-17T04:19:17;18.10;99.90
15900;DHT22;8048;50.644;6.184;2023-08-17T04:21:43;18.10;99.90
15900;DHT22;8048;50.644;6.184;2023-08-17T04:24:08;18.10;99.90
15900;DHT22;8048;50.644;6.184;2023-08-17T04:26:34;18.10;99.90
15900;DHT22;8048;50.644;6.184;2023-08-17T04:28:59;18.10;99.90
15900;DHT22;8048;50.644;6.184;2023-08-17T04:31:25;18.10;99.90
15900;DHT22;8048;50.644;6.184;2023-08-17T04:33:51;18.10;99.90
15900;DHT22;8048;50.644;6.184;2023-08-17T04:36:17;18.10;99.90
15900;DHT22;8048;50.644;6.184;2023-08-17T04:38:43;18.10;99.90
15900;DHT22;8048;50.644;6.184;2023-08-17T04:41:08;18.10;99.90
15900;DHT22;8048;50.644;6.184;2023-08-17T04:43:34;18.10;99.90
15900;DHT22;8048;50.644;6.184;2023-08-17T04:45:59;18.10;99.90
15900;DHT22;8048;50.644;6.184;2023-08-17T04:48:25;18.10;99.90
15900;DHT22;8048;50.644;6.184;2023-08-17T04:50:51;18.10;99.90
15900;DHT22;8048;50.644;6.184;2023-08-17T04:53:16;18.10;99.90
15900;DHT22;8048;50.644;6.184;2023-08-17T04:55:42;18.10;99.90
15900;DHT22;8048;50.644;6.184;2023-08-17T04:58:08;18.10;99.90
15900;DHT22;8048;50.644;6.184;2023-08-17T05:00:33;18.10;99.90
15900;DHT22;8048;50.644;6.184;2023-08-17T05:02:59;18.10;99.90
15900;DHT22;8048;50.644;6.184;2023-08-17T05:05:24;18.10;99.90
15900;DHT22;8048;50.644;6.184;2023-08-17T05:07:52;18.10;99.90
15900;DHT22;8048;50.644;6.184;2023-08-17T05:10:18;18.10;99.90
15900;DHT22;8048;50.644;6.184;2023-08-17T05:12:43;18.10;99.90
15900;DHT22;8048;50.644;6.184;2023-08-17T05:15:09;18.00;99.90
15900;DHT22;8048;50.644;6.184;2023-08-17T05:17:35;18.00;99.90
15900;DHT22;8048;50.644;6.184;2023-08-17T05:20:00;18.00;99.90
15900;DHT22;8048;50.644;6.184;2023-08-17T05:22:27;18.10;99.90
15900;DHT22;8048;50.644;6.184;2023-08-17T05:24:53;18.10;99.90
15900;DHT22;8048;50.644;6.184;2023-08-17T05:27:18;18.10;99.90
15900;DHT22;8048;50.644;6.184;2023-08-17T05:29:44;18.10;99.90
15900;DHT22;8048;50.644;6.184;2023-08-17T05:32:09;18.10;99.90
15900;DHT22;8048;50.644;6.184;2023-08-17T05:34:35;18.10;99.90
15900;DHT22;8048;50.644;6.184;2023-08-17T05:37:00;18.10;99.90
15900;DHT22;8048;50.644;6.184;2023-08-17T05:39:26;18.10;99.90
15900;DHT22;8048;50.644;6.184;2023-08-17T05:41:52;18.20;99.90
15900;DHT22;8048;50.644;6.184;2023-08-17T05:44:18;18.20;99.90
15900;DHT22;8048;50.644;6.184;2023-08-17T05:46:43;18.20;99.90
15900;DHT22;8048;50.644;6.184;2023-08-17T05:49:09;18.20;99.90
15900;DHT22;8048;50.644;6.184;2023-08-17T05:51:34;18.20;99.90
15900;DHT22;8048;50.644;6.184;2023-08-17T05:54:00;18.20;99.90
15900;DHT22;8048;50.644;6.184;2023-08-17T05:56:25;18.20;99.90
15900;DHT22;8048;50.644;6.184;2023-08-17T05:58:51;18.20;99.90
15900;DHT22;8048;50.644;6.184;2023-08-17T06:01:16;18.20;99.90
15900;DHT22;8048;50.644;6.184;2023-08-17T06:03:42;18.20;99.90
15900;DHT22;8048;50.644;6.184;2023-08-17T06:06:09;18.20;99.90
15900;DHT22;8048;50.644;6.184;2023-08-17T06:08:34;18.20;99.90
15900;DHT22;8048;50.644;6.184;2023-08-17T06:11:00;18.20;99.90
15900;DHT22;8048;50.644;6.184;2023-08-17T06:13:26;18.20;99.90
15900;DHT22;8048;50.644;6.184;2023-08-17T06:15:51;18.20;99.90
15900;DHT22;8048;50.644;6.184;2023-08-17T06:18:17;18.30;99.90
15900;DHT22;8048;50.644;6.184;2023-08-17T06:20:43;18.20;99.90
15900;DHT22;8048;50.644;6.184;2023-08-17T06:23:08;18.20;99.90
15900;DHT22;8048;50.644;6.184;2023-08-17T06:25:34;18.30;99.90
15900;DHT22;8048;50.644;6.184;2023-08-17T06:28:00;18.30;99.90
15900;DHT22;8048;50.644;6.184;2023-08-17T06:30:26;18.30;99.90
15900;DHT22;8048;50.644;6.184;2023-08-17T06:32:51;18.30;99.90
15900;DHT22;8048;50.644;6.184;2023-08-17T06:35:17;18.30;99.90
15900;DHT22;8048;50.644;6.184;2023-08-17T06:37:43;18.30;99.90
15900;DHT22;8048;50.644;6.184;2023-08-17T06:40:09;18.30;99.90
15900;DHT22;8048;50.644;6.184;2023-08-17T06:42:35;18.30;99.90
15900;DHT22;8048;50.644;6.184;2023-08-17T06:45:01;18.40;99.90
15900;DHT22;8048;50.644;6.184;2023-08-17T06:47:26;18.30;99.90
15900;DHT22;8048;50.644;6.184;2023-08-17T06:49:52;18.40;99.90
15900;DHT22;8048;50.644;6.184;2023-08-17T06:52:17;18.40;99.90
15900;DHT22;8048;50.644;6.184;2023-08-17T06:54:43;18.40;99.90
15900;DHT22;8048;50.644;6.184;2023-08-17T06:57:09;18.40;99.90
15900;DHT22;8048;50.644;6.184;2023-08-17T06:59:34;18.40;99.90
15900;DHT22;8048;50.644;6.184;2023-08-17T07:02:00;18.50;99.90
15900;DHT22;8048;50.644;6.184;2023-08-17T07:04:25;18.50;99.90
15900;DHT22;8048;50.644;6.184;2023-08-17T07:06:51;18.50;99.90
15900;DHT22;8048;50.644;6.184;2023-08-17T07:09:16;18.60;99.90
15900;DHT22;8048;50.644;6.184;2023-08-17T07:11:42;18.60;99.90
15900;DHT22;8048;50.644;6.184;2023-08-17T07:14:08;18.60;99.90
15900;DHT22;8048;50.644;6.184;2023-08-17T07:16:33;18.60;99.90
15900;DHT22;8048;50.644;6.184;2023-08-17T07:18:59;18.70;99.90
15900;DHT22;8048;50.644;6.184;2023-08-17T07:21:25;18.70;99.90
15900;DHT22;8048;50.644;6.184;2023-08-17T07:23:53;18.70;99.90
15900;DHT22;8048;50.644;6.184;2023-08-17T07:26:19;18.80;99.90
15900;DHT22;8048;50.644;6.184;2023-08-17T07:28:45;18.80;99.90
15900;DHT22;8048;50.644;6.184;2023-08-17T07:31:11;18.80;99.90
15900;DHT22;8048;50.644;6.184;2023-08-17T07:33:37;18.80;99.90
15900;DHT22;8048;50.644;6.184;2023-08-17T07:36:03;18.90;99.90
15900;DHT22;8048;50.644;6.184;2023-08-17T07:38:29;18.90;99.90
15900;DHT22;8048;50.644;6.184;2023-08-17T07:40:55;19.00;99.90
15900;DHT22;8048;50.644;6.184;2023-08-17T07:43:21;19.00;99.90
15900;DHT22;8048;50.644;6.184;2023-08-17T07:45:53;18.90;99.90
15900;DHT22;8048;50.644;6.184;2023-08-17T07:48:19;19.00;99.90
15900;DHT22;8048;50.644;6.184;2023-08-17T07:50:48;19.00;99.90
15900;DHT22;8048;50.644;6.184;2023-08-17T07:53:14;19.10;99.90
15900;DHT22;8048;50.644;6.184;2023-08-17T07:55:40;19.20;99.90
15900;DHT22;8048;50.644;6.184;2023-08-17T07:58:05;19.20;99.90
15900;DHT22;8048;50.644;6.184;2023-08-17T08:00:32;19.20;99.90
15900;DHT22;8048;50.644;6.184;2023-08-17T08:02:57;19.30;99.90
15900;DHT22;8048;50.644;6.184;2023-08-17T08:05:23;19.30;99.90
15900;DHT22;8048;50.644;6.184;2023-08-17T08:07:48;19.30;99.90
15900;DHT22;8048;50.644;6.184;2023-08-17T08:10:14;19.30;99.90
15900;DHT22;8048;50.644;6.184;2023-08-17T08:12:39;19.30;99.90
15900;DHT22;8048;50.644;6.184;2023-08-17T08:15:05;19.30;99.90
15900;DHT22;8048;50.644;6.184;2023-08-17T08:17:31;19.30;99.90
15900;DHT22;8048;50.644;6.184;2023-08-17T08:19:57;19.30;99.90
15900;DHT22;8048;50.644;6.184;2023-08-17T08:22:23;19.30;99.90
15900;DHT22;8048;50.644;6.184;2023-08-17T08:24:49;19.40;99.90
15900;DHT22;8048;50.644;6.184;2023-08-17T08:27:15;19.30;99.90
15900;DHT22;8048;50.644;6.184;2023-08-17T08:29:40;19.30;99.90
15900;DHT22;8048;50.644;6.184;2023-08-17T08:32:06;19.40;99.90
15900;DHT22;8048;50.644;6.184;2023-08-17T08:34:31;19.40;99.90
15900;DHT22;8048;50.644;6.184;2023-08-17T08:36:57;19.50;99.90
15900;DHT22;8048;50.644;6.184;2023-08-17T08:39:25;19.50;99.90
15900;DHT22;8048;50.644;6.184;2023-08-17T08:41:51;19.50;99.90
15900;DHT22;8048;50.644;6.184;2023-08-17T08:44:16;19.50;99.90
15900;DHT22;8048;50.644;6.184;2023-08-17T08:46:44;19.60;99.90
15900;DHT22;8048;50.644;6.184;2023-08-17T08:49:11;19.60;99.90
15900;DHT22;8048;50.644;6.184;2023-08-17T08:51:42;19.60;99.90
15900;DHT22;8048;50.644;6.184;2023-08-17T08:54:13;19.70;99.90
15900;DHT22;8048;50.644;6.184;2023-08-17T08:56:41;19.70;99.90
15900;DHT22;8048;50.644;6.184;2023-08-17T08:59:08;19.80;99.90
15900;DHT22;8048;50.644;6.184;2023-08-17T09:01:35;20.00;99.90
15900;DHT22;8048;50.644;6.184;2023-08-17T09:04:00;20.00;99.90
15900;DHT22;8048;50.644;6.184;2023-08-17T09:06:27;20.10;99.90
15900;DHT22;8048;50.644;6.184;2023-08-17T09:08:54;20.20;99.90
15900;DHT22;8048;50.644;6.184;2023-08-17T09:11:20;20.40;99.90
15900;DHT22;8048;50.644;6.184;2023-08-17T09:13:45;20.50;99.90
15900;DHT22;8048;50.644;6.184;2023-08-17T09:16:11;20.60;99.90
15900;DHT22;8048;50.644;6.184;2023-08-17T09:18:36;20.70;99.90
15900;DHT22;8048;50.644;6.184;2023-08-17T09:21:02;20.70;99.90
15900;DHT22;8048;50.644;6.184;2023-08-17T09:23:28;20.60;99.90
15900;DHT22;8048;50.644;6.184;2023-08-17T09:25:53;20.50;99.90
15900;DHT22;8048;50.644;6.184;2023-08-17T09:28:25;20.50;99.90
15900;DHT22;8048;50.644;6.184;2023-08-17T09:30:58;20.50;99.90
15900;DHT22;8048;50.644;6.184;2023-08-17T09:33:26;20.50;99.90
15900;DHT22;8048;50.644;6.184;2023-08-17T09:35:53;20.50;99.90
15900;DHT22;8048;50.644;6.184;2023-08-17T09:38:19;20.50;99.90
15900;DHT22;8048;50.644;6.184;2023-08-17T09:40:46;20.50;99.90
15900;DHT22;8048;50.644;6.184;2023-08-17T09:43:12;20.40;99.90
15900;DHT22;8048;50.644;6.184;2023-08-17T09:45:38;20.40;99.90
15900;DHT22;8048;50.644;6.184;2023-08-17T09:48:08;20.40;99.90
15900;DHT22;8048;50.644;6.184;2023-08-17T09:50:34;20.50;99.90
15900;DHT22;8048;50.644;6.184;2023-08-17T09:53:04;20.50;99.90
15900;DHT22;8048;50.644;6.184;2023-08-17T09:55:32;20.40;99.90
15900;DHT22;8048;50.644;6.184;2023-08-17T09:58:01;20.40;99.90
15900;DHT22;8048;50.644;6.184;2023-08-17T10:00:28;20.50;99.90
15900;DHT22;8048;50.644;6.184;2023-08-17T10:02:55;20.50;99.90
15900;DHT22;8048;50.644;6.184;2023-08-17T10:05:23;20.60;99.90
15900;DHT22;8048;50.644;6.184;2023-08-17T10:07:54;20.80;99.90
15900;DHT22;8048;50.644;6.184;2023-08-17T10:10:24;20.90;99.90
15900;DHT22;8048;50.644;6.184;2023-08-17T10:13:23;20.90;99.90
15900;DHT22;8048;50.644;6.184;2023-08-17T10:15:57;21.00;99.90
15900;DHT22;8048;50.644;6.184;2023-08-17T10:18:40;21.00;99.90
15900;DHT22;8048;50.644;6.184;2023-08-17T10:21:20;21.10;99.90
15900;DHT22;8048;50.644;6.184;2023-08-17T10:23:47;21.20;99.90
15900;DHT22;8048;50.644;6.184;2023-08-17T10:26:14;21.30;99.90
15900;DHT22;8048;50.644;6.184;2023-08-17T10:28:40;21.30;99.90
15900;DHT22;8048;50.644;6.184;2023-08-17T10:31:07;21.30;99.90
15900;DHT22;8048;50.644;6.184;2023-08-17T10:33:32;21.40;99.90
15900;DHT22;8048;50.644;6.184;2023-08-17T10:36:00;21.40;99.90
15900;DHT22;8048;50.644;6.184;2023-08-17T10:38:26;21.50;99.90
15900;DHT22;8048;50.644;6.184;2023-08-17T10:41:12;21.60;99.90
15900;DHT22;8048;50.644;6.184;2023-08-17T10:43:57;21.70;99.90
15900;DHT22;8048;50.644;6.184;2023-08-17T10:46:36;21.70;99.90
15900;DHT22;8048;50.644;6.184;2023-08-17T10:49:06;21.80;99.90
15900;DHT22;8048;50.644;6.184;2023-08-17T10:51:35;21.80;99.90
15900;DHT22;8048;50.644;6.184;2023-08-17T10:54:04;21.80;99.90
15900;DHT22;8048;50.644;6.184;2023-08-17T10:56:30;21.80;99.90
15900;DHT22;8048;50.644;6.184;2023-08-17T10:59:00;21.90;99.90
15900;DHT22;8048;50.644;6.184;2023-08-17T11:01:35;21.90;99.90
15900;DHT22;8048;50.644;6.184;2023-08-17T11:04:12;21.90;99.90
15900;DHT22;8048;50.644;6.184;2023-08-17T11:06:42;21.80;99.90
15900;DHT22;8048;50.644;6.184;2023-08-17T11:09:08;21.70;99.90
15900;DHT22;8048;50.644;6.184;2023-08-17T11:11:34;21.60;99.90
15900;DHT22;8048;50.644;6.184;2023-08-17T11:13:59;21.60;99.90
15900;DHT22;8048;50.644;6.184;2023-08-17T11:16:25;21.60;99.90
15900;DHT22;8048;50.644;6.184;2023-08-17T11:18:51;21.60;99.90
15900;DHT22;8048;50.644;6.184;2023-08-17T11:21:17;21.60;99.90
15900;DHT22;8048;50.644;6.184;2023-08-17T11:23:43;21.60;99.90
15900;DHT22;8048;50.644;6.184;2023-08-17T11:26:09;21.70;99.90
15900;DHT22;8048;50.644;6.184;2023-08-17T11:28:36;21.60;99.90
15900;DHT22;8048;50.644;6.184;2023-08-17T11:31:09;21.80;99.90
15900;DHT22;8048;50.644;6.184;2023-08-17T11:33:36;21.80;99.90
15900;DHT22;8048;50.644;6.184;2023-08-17T11:36:04;21.90;99.90
15900;DHT22;8048;50.644;6.184;2023-08-17T11:38:35;22.00;99.90
15900;DHT22;8048;50.644;6.184;2023-08-17T11:41:02;22.00;99.90
15900;DHT22;8048;50.644;6.184;2023-08-17T11:43:29;22.10;99.90
15900;DHT22;8048;50.644;6.184;2023-08-17T11:45:55;22.10;99.90
15900;DHT22;8048;50.644;6.184;2023-08-17T11:48:23;22.20;99.90
15900;DHT22;8048;50.644;6.184;2023-08-17T11:50:48;22.20;99.90
15900;DHT22;8048;50.644;6.184;2023-08-17T11:53:14;22.20;99.90
15900;DHT22;8048;50.644;6.184;2023-08-17T11:55:40;22.30;99.90
15900;DHT22;8048;50.644;6.184;2023-08-17T11:58:06;22.40;99.90
15900;DHT22;8048;50.644;6.184;2023-08-17T12:00:41;22.50;99.90
15900;DHT22;8048;50.644;6.184;2023-08-17T12:03:13;22.50;99.90
15900;DHT22;8048;50.644;6.184;2023-08-17T12:05:38;22.60;99.90
15900;DHT22;8048;50.644;6.184;2023-08-17T12:08:04;22.50;99.90
15900;DHT22;8048;50.644;6.184;2023-08-17T12:10:33;22.40;99.90
15900;DHT22;8048;50.644;6.184;2023-08-17T12:12:59;22.30;99.90
15900;DHT22;8048;50.644;6.184;2023-08-17T12:15:33;22.20;99.90
15900;DHT22;8048;50.644;6.184;2023-08-17T12:18:03;22.20;99.90
15900;DHT22;8048;50.644;6.184;2023-08-17T12:20:29;22.20;99.90
15900;DHT22;8048;50.644;6.184;2023-08-17T12:22:57;22.20;99.90
15900;DHT22;8048;50.644;6.184;2023-08-17T12:25:23;22.30;99.90
15900;DHT22;8048;50.644;6.184;2023-08-17T12:27:49;22.30;99.90
15900;DHT22;8048;50.644;6.184;2023-08-17T12:30:30;22.30;99.90
15900;DHT22;8048;50.644;6.184;2023-08-17T12:32:58;22.30;99.90
15900;DHT22;8048;50.644;6.184;2023-08-17T12:35:24;22.30;99.90
15900;DHT22;8048;50.644;6.184;2023-08-17T12:37:50;22.30;99.90
15900;DHT22;8048;50.644;6.184;2023-08-17T12:40:16;22.30;99.90
15900;DHT22;8048;50.644;6.184;2023-08-17T12:42:41;22.20;99.90
15900;DHT22;8048;50.644;6.184;2023-08-17T12:45:07;22.20;99.90
15900;DHT22;8048;50.644;6.184;2023-08-17T12:47:33;22.20;99.90
15900;DHT22;8048;50.644;6.184;2023-08-17T12:49:58;22.30;99.90
15900;DHT22;8048;50.644;6.184;2023-08-17T12:52:25;22.40;99.90
15900;DHT22;8048;50.644;6.184;2023-08-17T12:54:51;22.50;99.90
15900;DHT22;8048;50.644;6.184;2023-08-17T12:57:16;22.60;99.90
15900;DHT22;8048;50.644;6.184;2023-08-17T12:59:42;22.90;99.90
15900;DHT22;8048;50.644;6.184;2023-08-17T13:02:07;23.10;99.90
15900;DHT22;8048;50.644;6.184;2023-08-17T13:04:33;23.80;99.90
15900;DHT22;8048;50.644;6.184;2023-08-17T13:06:58;24.50;99.90
15900;DHT22;8048;50.644;6.184;2023-08-17T13:09:24;25.20;99.90
15900;DHT22;8048;50.644;6.184;2023-08-17T13:11:49;25.90;99.90
15900;DHT22;8048;50.644;6.184;2023-08-17T13:14:15;26.60;99.90
15900;DHT22;8048;50.644;6.184;2023-08-17T13:16:41;27.30;99.90
15900;DHT22;8048;50.644;6.184;2023-08-17T13:19:07;27.70;99.80
15900;DHT22;8048;50.644;6.184;2023-08-17T13:21:32;27.90;99.40
15900;DHT22;8048;50.644;6.184;2023-08-17T13:23:58;28.00;99.20
15900;DHT22;8048;50.644;6.184;2023-08-17T13:26:24;27.80;97.60
15900;DHT22;8048;50.644;6.184;2023-08-17T13:28:49;27.40;98.70
15900;DHT22;8048;50.644;6.184;2023-08-17T13:31:15;27.00;98.10
15900;DHT22;8048;50.644;6.184;2023-08-17T13:33:40;26.60;98.60
15900;DHT22;8048;50.644;6.184;2023-08-17T13:36:06;26.50;99.90
15900;DHT22;8048;50.644;6.184;2023-08-17T13:38:32;26.50;99.50
15900;DHT22;8048;50.644;6.184;2023-08-17T13:40:57;26.30;99.20
15900;DHT22;8048;50.644;6.184;2023-08-17T13:43:23;26.40;99.40
15900;DHT22;8048;50.644;6.184;2023-08-17T13:45:48;26.50;99.80
15900;DHT22;8048;50.644;6.184;2023-08-17T13:48:14;26.70;99.20
15900;DHT22;8048;50.644;6.184;2023-08-17T13:50:40;26.70;98.40
15900;DHT22;8048;50.644;6.184;2023-08-17T13:53:05;26.60;99.20
15900;DHT22;8048;50.644;6.184;2023-08-17T13:55:31;26.40;99.10
15900;DHT22;8048;50.644;6.184;2023-08-17T13:57:57;26.20;99.20
15900;DHT22;8048;50.644;6.184;2023-08-17T14:00:23;26.10;99.60
15900;DHT22;8048;50.644;6.184;2023-08-17T14:02:49;26.00;99.50
15900;DHT22;8048;50.644;6.184;2023-08-17T14:05:15;26.00;99.90
15900;DHT22;8048;50.644;6.184;2023-08-17T14:07:40;25.90;99.90
15900;DHT22;8048;50.644;6.184;2023-08-17T14:10:06;25.80;99.50
15900;DHT22;8048;50.644;6.184;2023-08-17T14:12:32;25.80;99.80
15900;DHT22;8048;50.644;6.184;2023-08-17T14:14:57;25.70;99.60
15900;DHT22;8048;50.644;6.184;2023-08-17T14:17:24;25.70;99.90
15900;DHT22;8048;50.644;6.184;2023-08-17T14:19:49;25.60;99.70
15900;DHT22;8048;50.644;6.184;2023-08-17T14:22:14;25.60;99.90
15900;DHT22;8048;50.644;6.184;2023-08-17T14:24:40;25.60;99.90
15900;DHT22;8048;50.644;6.184;2023-08-17T14:27:05;25.80;99.90
15900;DHT22;8048;50.644;6.184;2023-08-17T14:29:31;26.00;99.90
15900;DHT22;8048;50.644;6.184;2023-08-17T14:31:56;26.10;99.70
15900;DHT22;8048;50.644;6.184;2023-08-17T14:34:22;26.10;99.90
15900;DHT22;8048;50.644;6.184;2023-08-17T14:36:48;26.10;99.30
15900;DHT22;8048;50.644;6.184;2023-08-17T14:39:13;26.00;99.20
15900;DHT22;8048;50.644;6.184;2023-08-17T14:41:39;25.90;99.40
15900;DHT22;8048;50.644;6.184;2023-08-17T14:44:04;25.80;99.50
15900;DHT22;8048;50.644;6.184;2023-08-17T14:46:30;25.70;99.80
15900;DHT22;8048;50.644;6.184;2023-08-17T14:48:56;25.70;99.80
15900;DHT22;8048;50.644;6.184;2023-08-17T14:51:23;25.70;99.90
15900;DHT22;8048;50.644;6.184;2023-08-17T14:53:48;25.60;99.90
15900;DHT22;8048;50.644;6.184;2023-08-17T14:56:14;25.60;99.90
15900;DHT22;8048;50.644;6.184;2023-08-17T14:58:39;25.60;99.90
15900;DHT22;8048;50.644;6.184;2023-08-17T15:01:05;25.50;99.90
15900;DHT22;8048;50.644;6.184;2023-08-17T15:03:30;25.40;99.90
15900;DHT22;8048;50.644;6.184;2023-08-17T15:05:56;25.40;99.90
15900;DHT22;8048;50.644;6.184;2023-08-17T15:08:21;25.40;99.90
15900;DHT22;8048;50.644;6.184;2023-08-17T15:10:47;25.40;99.90
15900;DHT22;8048;50.644;6.184;2023-08-17T15:13:16;25.40;99.90
15900;DHT22;8048;50.644;6.184;2023-08-17T15:15:43;25.30;99.90
15900;DHT22;8048;50.644;6.184;2023-08-17T15:18:09;25.30;99.90
15900;DHT22;8048;50.644;6.184;2023-08-17T15:20:35;25.30;99.90
15900;DHT22;8048;50.644;6.184;2023-08-17T15:23:01;25.30;99.90
15900;DHT22;8048;50.644;6.184;2023-08-17T15:25:26;25.20;99.90
15900;DHT22;8048;50.644;6.184;2023-08-17T15:27:52;25.30;99.90
15900;DHT22;8048;50.644;6.184;2023-08-17T15:30:18;25.20;99.90
15900;DHT22;8048;50.644;6.184;2023-08-17T15:32:44;25.30;99.90
15900;DHT22;8048;50.644;6.184;2023-08-17T15:35:10;25.30;99.90
15900;DHT22;8048;50.644;6.184;2023-08-17T15:37:39;25.30;99.90
15900;DHT22;8048;50.644;6.184;2023-08-17T15:40:06;25.30;99.90
15900;DHT22;8048;50.644;6.184;2023-08-17T15:42:31;25.40;99.90
15900;DHT22;8048;50.644;6.184;2023-08-17T15:44:57;25.40;99.90